sensor_id;sensor_type;location;lat;lon;timestamp;P1;durP1;ratioP1;P2;durP2;ratioP2
27558;SDS011;15002;52.028;5.670;2022-10-17T00:00:38;11.70;;;8.57;;
27558;SDS011;15002;52.028;5.670;2022-10-17T00:03:04;13.52;;;8.88;;
27558;SDS011;15002;52.028;5.670;2022-10-17T00:05:29;12.40;;;8.32;;
27558;SDS011;15002;52.028;5.670;2022-10-17T00:07:55;12.15;;;8.63;;
27558;SDS011;15002;52.028;5.670;2022-10-17T00:10:21;12.80;;;8.85;;
27558;SDS011;15002;52.028;5.670;2022-10-17T00:12:46;11.10;;;8.80;;
27558;SDS011;15002;52.028;5.670;2022-10-17T00:15:16;12.43;;;9.10;;
27558;SDS011;15002;52.028;5.670;2022-10-17T00:17:43;12.00;;;8.80;;
27558;SDS011;15002;52.028;5.670;2022-10-17T00:20:09;12.00;;;8.77;;
27558;SDS011;15002;52.028;5.670;2022-10-17T00:22:36;14.00;;;8.75;;
27558;SDS011;15002;52.028;5.670;2022-10-17T00:25:02;11.35;;;8.20;;
27558;SDS011;15002;52.028;5.670;2022-10-17T00:27:28;13.82;;;9.15;;
27558;SDS011;15002;52.028;5.670;2022-10-17T00:29:53;14.48;;;8.57;;
27558;SDS011;15002;52.028;5.670;2022-10-17T00:32:19;14.00;;;8.90;;
27558;SDS011;15002;52.028;5.670;2022-10-17T00:34:45;15.07;;;9.35;;
27558;SDS011;15002;52.028;5.670;2022-10-17T00:37:11;15.50;;;9.25;;
27558;SDS011;15002;52.028;5.670;2022-10-17T00:39:36;12.00;;;9.05;;
27558;SDS011;15002;52.028;5.670;2022-10-17T00:42:02;14.50;;;8.73;;
27558;SDS011;15002;52.028;5.670;2022-10-17T00:46:54;12.43;;;9.25;;
27558;SDS011;15002;52.028;5.670;2022-10-17T00:49:26;12.00;;;9.25;;
27558;SDS011;15002;52.028;5.670;2022-10-17T00:51:56;17.08;;;10.07;;
27558;SDS011;15002;52.028;5.670;2022-10-17T00:54:29;10.82;;;9.43;;
27558;SDS011;15002;52.028;5.670;2022-10-17T00:56:58;13.35;;;9.05;;
27558;SDS011;15002;52.028;5.670;2022-10-17T00:59:24;13.50;;;9.30;;
27558;SDS011;15002;52.028;5.670;2022-10-17T01:01:52;13.77;;;9.27;;
27558;SDS011;15002;52.028;5.670;2022-10-17T01:04:25;12.57;;;9.63;;
27558;SDS011;15002;52.028;5.670;2022-10-17T01:06:50;13.85;;;9.52;;
27558;SDS011;15002;52.028;5.670;2022-10-17T01:09:16;13.65;;;9.70;;
27558;SDS011;15002;52.028;5.670;2022-10-17T01:22:46;13.20;;;10.05;;
27558;SDS011;15002;52.028;5.670;2022-10-17T01:27:55;12.57;;;9.60;;
27558;SDS011;15002;52.028;5.670;2022-10-17T01:33:28;14.52;;;9.95;;
27558;SDS011;15002;52.028;5.670;2022-10-17T01:41:45;15.35;;;9.98;;
27558;SDS011;15002;52.028;5.670;2022-10-17T01:44:19;13.55;;;10.32;;
27558;SDS011;15002;52.028;5.670;2022-10-17T01:46:53;12.82;;;9.75;;
27558;SDS011;15002;52.028;5.670;2022-10-17T01:49:25;15.10;;;9.93;;
27558;SDS011;15002;52.028;5.670;2022-10-17T01:52:38;14.02;;;9.68;;
27558;SDS011;15002;52.028;5.670;2022-10-17T01:57:47;13.00;;;10.05;;
27558;SDS011;15002;52.028;5.670;2022-10-17T02:00:19;12.77;;;9.40;;
27558;SDS011;15002;52.028;5.670;2022-10-17T02:02:47;12.88;;;9.85;;
27558;SDS011;15002;52.028;5.670;2022-10-17T02:05:17;13.95;;;10.57;;
27558;SDS011;15002;52.028;5.670;2022-10-17T02:07:48;14.05;;;9.45;;
27558;SDS011;15002;52.028;5.670;2022-10-17T02:10:35;12.30;;;10.02;;
27558;SDS011;15002;52.028;5.670;2022-10-17T02:13:21;11.50;;;9.32;;
27558;SDS011;15002;52.028;5.670;2022-10-17T02:19:06;12.50;;;9.93;;
27558;SDS011;15002;52.028;5.670;2022-10-17T02:21:57;15.15;;;9.43;;
27558;SDS011;15002;52.028;5.670;2022-10-17T02:24:43;12.73;;;9.50;;
27558;SDS011;15002;52.028;5.670;2022-10-17T02:27:22;10.70;;;9.40;;
27558;SDS011;15002;52.028;5.670;2022-10-17T02:30:05;12.88;;;9.90;;
27558;SDS011;15002;52.028;5.670;2022-10-17T02:35:29;12.70;;;9.75;;
27558;SDS011;15002;52.028;5.670;2022-10-17T02:37:59;15.75;;;9.85;;
27558;SDS011;15002;52.028;5.670;2022-10-17T02:40:28;15.45;;;9.65;;
27558;SDS011;15002;52.028;5.670;2022-10-17T02:42:55;11.68;;;9.50;;
27558;SDS011;15002;52.028;5.670;2022-10-17T02:45:25;15.07;;;9.63;;
27558;SDS011;15002;52.028;5.670;2022-10-17T02:48:00;11.02;;;9.30;;
27558;SDS011;15002;52.028;5.670;2022-10-17T02:50:44;16.50;;;10.55;;
27558;SDS011;15002;52.028;5.670;2022-10-17T02:53:28;19.02;;;10.27;;
27558;SDS011;15002;52.028;5.670;2022-10-17T02:56:14;13.35;;;10.30;;
27558;SDS011;15002;52.028;5.670;2022-10-17T02:58:42;14.77;;;10.43;;
27558;SDS011;15002;52.028;5.670;2022-10-17T03:01:12;16.43;;;10.10;;
27558;SDS011;15002;52.028;5.670;2022-10-17T03:03:38;14.73;;;10.35;;
27558;SDS011;15002;52.028;5.670;2022-10-17T03:06:04;13.02;;;10.38;;
27558;SDS011;15002;52.028;5.670;2022-10-17T03:08:30;13.02;;;9.88;;
27558;SDS011;15002;52.028;5.670;2022-10-17T03:10:55;15.88;;;10.57;;
27558;SDS011;15002;52.028;5.670;2022-10-17T03:13:21;16.95;;;10.13;;
27558;SDS011;15002;52.028;5.670;2022-10-17T03:15:46;15.27;;;10.75;;
27558;SDS011;15002;52.028;5.670;2022-10-17T03:18:12;13.30;;;9.68;;
27558;SDS011;15002;52.028;5.670;2022-10-17T03:20:38;13.93;;;10.75;;
27558;SDS011;15002;52.028;5.670;2022-10-17T03:23:03;14.50;;;11.25;;
27558;SDS011;15002;52.028;5.670;2022-10-17T03:25:29;12.88;;;9.95;;
27558;SDS011;15002;52.028;5.670;2022-10-17T03:27:56;13.18;;;10.45;;
27558;SDS011;15002;52.028;5.670;2022-10-17T03:30:23;13.90;;;10.52;;
27558;SDS011;15002;52.028;5.670;2022-10-17T03:32:49;13.40;;;10.00;;
27558;SDS011;15002;52.028;5.670;2022-10-17T03:35:14;19.02;;;10.93;;
27558;SDS011;15002;52.028;5.670;2022-10-17T03:37:40;14.88;;;9.93;;
27558;SDS011;15002;52.028;5.670;2022-10-17T03:40:06;18.40;;;10.82;;
27558;SDS011;15002;52.028;5.670;2022-10-17T03:42:31;14.60;;;9.88;;
27558;SDS011;15002;52.028;5.670;2022-10-17T03:44:57;14.30;;;10.82;;
27558;SDS011;15002;52.028;5.670;2022-10-17T03:47:23;14.60;;;10.95;;
27558;SDS011;15002;52.028;5.670;2022-10-17T03:49:48;15.38;;;10.85;;
27558;SDS011;15002;52.028;5.670;2022-10-17T03:52:14;15.95;;;10.68;;
27558;SDS011;15002;52.028;5.670;2022-10-17T03:54:40;13.27;;;10.60;;
27558;SDS011;15002;52.028;5.670;2022-10-17T03:57:05;13.60;;;9.48;;
27558;SDS011;15002;52.028;5.670;2022-10-17T03:59:31;14.32;;;9.68;;
27558;SDS011;15002;52.028;5.670;2022-10-17T04:01:57;16.27;;;10.38;;
27558;SDS011;15002;52.028;5.670;2022-10-17T04:04:22;13.15;;;10.15;;
27558;SDS011;15002;52.028;5.670;2022-10-17T04:06:48;15.20;;;9.35;;
27558;SDS011;15002;52.028;5.670;2022-10-17T04:09:14;13.23;;;9.57;;
27558;SDS011;15002;52.028;5.670;2022-10-17T04:11:39;12.35;;;9.63;;
27558;SDS011;15002;52.028;5.670;2022-10-17T04:14:05;12.77;;;9.65;;
27558;SDS011;15002;52.028;5.670;2022-10-17T04:16:31;13.77;;;10.05;;
27558;SDS011;15002;52.028;5.670;2022-10-17T04:18:57;13.43;;;9.63;;
27558;SDS011;15002;52.028;5.670;2022-10-17T04:21:24;12.57;;;9.55;;
27558;SDS011;15002;52.028;5.670;2022-10-17T04:23:54;16.33;;;9.77;;
27558;SDS011;15002;52.028;5.670;2022-10-17T04:26:21;13.90;;;9.40;;
27558;SDS011;15002;52.028;5.670;2022-10-17T04:28:47;13.57;;;9.68;;
27558;SDS011;15002;52.028;5.670;2022-10-17T04:31:13;11.10;;;8.95;;
27558;SDS011;15002;52.028;5.670;2022-10-17T04:33:39;14.60;;;9.88;;
27558;SDS011;15002;52.028;5.670;2022-10-17T04:36:06;14.88;;;9.43;;
27558;SDS011;15002;52.028;5.670;2022-10-17T04:38:35;15.88;;;9.35;;
27558;SDS011;15002;52.028;5.670;2022-10-17T04:41:02;14.00;;;9.75;;
27558;SDS011;15002;52.028;5.670;2022-10-17T04:43:30;12.30;;;8.95;;
27558;SDS011;15002;52.028;5.670;2022-10-17T04:45:57;13.90;;;10.15;;
27558;SDS011;15002;52.028;5.670;2022-10-17T04:48:25;13.13;;;9.32;;
27558;SDS011;15002;52.028;5.670;2022-10-17T04:50:54;14.57;;;9.73;;
27558;SDS011;15002;52.028;5.670;2022-10-17T04:53:21;11.90;;;9.50;;
27558;SDS011;15002;52.028;5.670;2022-10-17T04:55:47;13.02;;;9.73;;
27558;SDS011;15002;52.028;5.670;2022-10-17T04:58:13;11.98;;;9.30;;
27558;SDS011;15002;52.028;5.670;2022-10-17T05:00:39;15.85;;;9.50;;
27558;SDS011;15002;52.028;5.670;2022-10-17T05:03:04;12.32;;;9.57;;
27558;SDS011;15002;52.028;5.670;2022-10-17T05:05:30;16.20;;;9.68;;
27558;SDS011;15002;52.028;5.670;2022-10-17T05:07:56;14.20;;;9.45;;
27558;SDS011;15002;52.028;5.670;2022-10-17T05:10:21;16.98;;;9.82;;
27558;SDS011;15002;52.028;5.670;2022-10-17T05:12:47;15.70;;;10.05;;
27558;SDS011;15002;52.028;5.670;2022-10-17T05:15:14;15.13;;;9.90;;
27558;SDS011;15002;52.028;5.670;2022-10-17T05:17:40;13.68;;;9.75;;
27558;SDS011;15002;52.028;5.670;2022-10-17T05:20:06;14.05;;;9.60;;
27558;SDS011;15002;52.028;5.670;2022-10-17T05:22:33;10.48;;;9.05;;
27558;SDS011;15002;52.028;5.670;2022-10-17T05:24:58;14.52;;;10.48;;
27558;SDS011;15002;52.028;5.670;2022-10-17T05:27:24;11.35;;;9.85;;
27558;SDS011;15002;52.028;5.670;2022-10-17T05:29:50;12.75;;;9.15;;
27558;SDS011;15002;52.028;5.670;2022-10-17T05:32:15;15.02;;;10.18;;
27558;SDS011;15002;52.028;5.670;2022-10-17T05:34:41;16.30;;;10.15;;
27558;SDS011;15002;52.028;5.670;2022-10-17T05:37:06;14.95;;;10.27;;
27558;SDS011;15002;52.028;5.670;2022-10-17T05:39:32;13.05;;;10.65;;
27558;SDS011;15002;52.028;5.670;2022-10-17T05:41:58;15.98;;;10.70;;
27558;SDS011;15002;52.028;5.670;2022-10-17T05:44:23;11.30;;;9.60;;
27558;SDS011;15002;52.028;5.670;2022-10-17T05:46:49;14.20;;;9.95;;
27558;SDS011;15002;52.028;5.670;2022-10-17T05:49:15;12.93;;;10.77;;
27558;SDS011;15002;52.028;5.670;2022-10-17T05:51:41;15.10;;;9.77;;
27558;SDS011;15002;52.028;5.670;2022-10-17T05:54:06;17.23;;;9.77;;
27558;SDS011;15002;52.028;5.670;2022-10-17T05:56:32;12.75;;;10.00;;
27558;SDS011;15002;52.028;5.670;2022-10-17T05:58:59;15.18;;;9.75;;
27558;SDS011;15002;52.028;5.670;2022-10-17T06:01:25;13.30;;;10.10;;
27558;SDS011;15002;52.028;5.670;2022-10-17T06:03:50;15.18;;;9.55;;
27558;SDS011;15002;52.028;5.670;2022-10-17T06:06:16;15.77;;;9.80;;
27558;SDS011;15002;52.028;5.670;2022-10-17T06:08:43;15.65;;;9.90;;
27558;SDS011;15002;52.028;5.670;2022-10-17T06:11:09;16.15;;;10.25;;
27558;SDS011;15002;52.028;5.670;2022-10-17T06:13:36;16.75;;;10.32;;
27558;SDS011;15002;52.028;5.670;2022-10-17T06:16:03;15.55;;;10.50;;
27558;SDS011;15002;52.028;5.670;2022-10-17T06:18:29;13.18;;;10.27;;
27558;SDS011;15002;52.028;5.670;2022-10-17T06:21:00;21.55;;;10.98;;
27558;SDS011;15002;52.028;5.670;2022-10-17T06:23:29;16.92;;;10.70;;
27558;SDS011;15002;52.028;5.670;2022-10-17T06:25:59;13.32;;;9.02;;
27558;SDS011;15002;52.028;5.670;2022-10-17T06:28:26;16.77;;;9.60;;
27558;SDS011;15002;52.028;5.670;2022-10-17T06:30:52;12.77;;;9.30;;
27558;SDS011;15002;52.028;5.670;2022-10-17T06:33:17;14.25;;;9.25;;
27558;SDS011;15002;52.028;5.670;2022-10-17T06:35:49;16.55;;;11.18;;
27558;SDS011;15002;52.028;5.670;2022-10-17T06:40:41;17.33;;;10.43;;
27558;SDS011;15002;52.028;5.670;2022-10-17T06:43:06;14.30;;;9.85;;
27558;SDS011;15002;52.028;5.670;2022-10-17T06:45:32;15.65;;;10.45;;
27558;SDS011;15002;52.028;5.670;2022-10-17T06:47:58;12.65;;;9.10;;
27558;SDS011;15002;52.028;5.670;2022-10-17T06:50:23;13.25;;;9.52;;
27558;SDS011;15002;52.028;5.670;2022-10-17T06:52:50;14.75;;;9.82;;
27558;SDS011;15002;52.028;5.670;2022-10-17T06:55:15;13.15;;;9.23;;
27558;SDS011;15002;52.028;5.670;2022-10-17T06:57:41;15.38;;;9.45;;
27558;SDS011;15002;52.028;5.670;2022-10-17T07:00:07;15.25;;;9.18;;
27558;SDS011;15002;52.028;5.670;2022-10-17T07:02:33;12.50;;;9.23;;
27558;SDS011;15002;52.028;5.670;2022-10-17T07:04:58;12.55;;;8.88;;
27558;SDS011;15002;52.028;5.670;2022-10-17T07:07:24;13.80;;;9.23;;
27558;SDS011;15002;52.028;5.670;2022-10-17T07:09:50;12.02;;;8.65;;
27558;SDS011;15002;52.028;5.670;2022-10-17T07:12:16;16.55;;;9.32;;
27558;SDS011;15002;52.028;5.670;2022-10-17T07:14:42;13.15;;;8.82;;
27558;SDS011;15002;52.028;5.670;2022-10-17T07:17:11;14.43;;;10.07;;
27558;SDS011;15002;52.028;5.670;2022-10-17T07:19:37;14.00;;;8.80;;
27558;SDS011;15002;52.028;5.670;2022-10-17T07:22:03;14.73;;;9.05;;
27558;SDS011;15002;52.028;5.670;2022-10-17T07:24:28;12.15;;;9.07;;
27558;SDS011;15002;52.028;5.670;2022-10-17T07:26:54;13.13;;;8.90;;
27558;SDS011;15002;52.028;5.670;2022-10-17T07:29:19;13.32;;;8.75;;
27558;SDS011;15002;52.028;5.670;2022-10-17T07:31:45;12.80;;;9.60;;
27558;SDS011;15002;52.028;5.670;2022-10-17T07:34:12;12.65;;;9.02;;
27558;SDS011;15002;52.028;5.670;2022-10-17T07:36:38;12.82;;;9.35;;
27558;SDS011;15002;52.028;5.670;2022-10-17T07:39:04;15.57;;;8.70;;
27558;SDS011;15002;52.028;5.670;2022-10-17T07:41:29;12.43;;;8.35;;
27558;SDS011;15002;52.028;5.670;2022-10-17T07:43:55;11.25;;;8.40;;
27558;SDS011;15002;52.028;5.670;2022-10-17T07:46:20;12.48;;;8.68;;
27558;SDS011;15002;52.028;5.670;2022-10-17T07:48:46;11.63;;;8.45;;
27558;SDS011;15002;52.028;5.670;2022-10-17T07:51:12;11.55;;;8.40;;
27558;SDS011;15002;52.028;5.670;2022-10-17T07:53:38;11.23;;;8.43;;
27558;SDS011;15002;52.028;5.670;2022-10-17T07:56:07;15.60;;;8.93;;
27558;SDS011;15002;52.028;5.670;2022-10-17T07:58:34;11.02;;;8.25;;
27558;SDS011;15002;52.028;5.670;2022-10-17T08:01:01;11.85;;;8.20;;
27558;SDS011;15002;52.028;5.670;2022-10-17T08:03:28;13.50;;;8.70;;
27558;SDS011;15002;52.028;5.670;2022-10-17T08:05:57;13.65;;;9.30;;
27558;SDS011;15002;52.028;5.670;2022-10-17T08:08:23;31.80;;;25.45;;
27558;SDS011;15002;52.028;5.670;2022-10-17T08:10:49;42.03;;;35.38;;
27558;SDS011;15002;52.028;5.670;2022-10-17T08:13:15;44.25;;;37.08;;
27558;SDS011;15002;52.028;5.670;2022-10-17T08:15:40;49.38;;;39.88;;
27558;SDS011;15002;52.028;5.670;2022-10-17T08:18:06;46.40;;;33.72;;
27558;SDS011;15002;52.028;5.670;2022-10-17T08:20:32;33.80;;;24.23;;
27558;SDS011;15002;52.028;5.670;2022-10-17T08:22:57;21.88;;;16.27;;
27558;SDS011;15002;52.028;5.670;2022-10-17T08:25:23;16.58;;;10.25;;
27558;SDS011;15002;52.028;5.670;2022-10-17T08:27:49;14.90;;;10.13;;
27558;SDS011;15002;52.028;5.670;2022-10-17T08:30:15;11.98;;;9.35;;
27558;SDS011;15002;52.028;5.670;2022-10-17T08:32:41;12.95;;;8.95;;
27558;SDS011;15002;52.028;5.670;2022-10-17T08:35:07;13.90;;;9.77;;
27558;SDS011;15002;52.028;5.670;2022-10-17T08:37:33;22.48;;;16.48;;
27558;SDS011;15002;52.028;5.670;2022-10-17T08:39:59;30.52;;;24.45;;
27558;SDS011;15002;52.028;5.670;2022-10-17T08:45:15;15.00;;;11.98;;
27558;SDS011;15002;52.028;5.670;2022-10-17T08:47:53;13.55;;;10.68;;
27558;SDS011;15002;52.028;5.670;2022-10-17T08:50:36;13.50;;;10.30;;
27558;SDS011;15002;52.028;5.670;2022-10-17T08:53:26;14.85;;;9.55;;
27558;SDS011;15002;52.028;5.670;2022-10-17T08:56:15;12.30;;;9.65;;
27558;SDS011;15002;52.028;5.670;2022-10-17T08:58:44;14.57;;;8.23;;
27558;SDS011;15002;52.028;5.670;2022-10-17T09:01:28;15.60;;;10.02;;
27558;SDS011;15002;52.028;5.670;2022-10-17T09:04:19;15.43;;;9.40;;
27558;SDS011;15002;52.028;5.670;2022-10-17T09:07:00;16.67;;;9.85;;
27558;SDS011;15002;52.028;5.670;2022-10-17T09:09:33;17.63;;;12.48;;
27558;SDS011;15002;52.028;5.670;2022-10-17T09:12:32;16.83;;;12.10;;
27558;SDS011;15002;52.028;5.670;2022-10-17T09:20:55;17.10;;;13.82;;
27558;SDS011;15002;52.028;5.670;2022-10-17T09:23:27;19.48;;;14.75;;
27558;SDS011;15002;52.028;5.670;2022-10-17T09:25:58;29.48;;;23.55;;
27558;SDS011;15002;52.028;5.670;2022-10-17T09:28:32;42.17;;;31.60;;
27558;SDS011;15002;52.028;5.670;2022-10-17T09:33:38;31.15;;;25.73;;
27558;SDS011;15002;52.028;5.670;2022-10-17T09:36:10;27.02;;;20.75;;
27558;SDS011;15002;52.028;5.670;2022-10-17T09:39:05;13.85;;;11.65;;
27558;SDS011;15002;52.028;5.670;2022-10-17T09:41:46;17.15;;;11.57;;
27558;SDS011;15002;52.028;5.670;2022-10-17T09:44:16;18.25;;;13.13;;
27558;SDS011;15002;52.028;5.670;2022-10-17T09:49:41;23.77;;;17.55;;
27558;SDS011;15002;52.028;5.670;2022-10-17T09:52:17;24.73;;;17.38;;
27558;SDS011;15002;52.028;5.670;2022-10-17T09:55:03;12.90;;;10.07;;
27558;SDS011;15002;52.028;5.670;2022-10-17T09:57:55;14.35;;;10.00;;
27558;SDS011;15002;52.028;5.670;2022-10-17T10:00:30;14.77;;;10.73;;
27558;SDS011;15002;52.028;5.670;2022-10-17T10:03:11;13.75;;;9.82;;
27558;SDS011;15002;52.028;5.670;2022-10-17T10:05:59;15.25;;;9.40;;
27558;SDS011;15002;52.028;5.670;2022-10-17T10:08:26;14.88;;;10.18;;
27558;SDS011;15002;52.028;5.670;2022-10-17T10:11:03;13.75;;;10.57;;
27558;SDS011;15002;52.028;5.670;2022-10-17T10:13:31;13.00;;;10.32;;
27558;SDS011;15002;52.028;5.670;2022-10-17T10:16:15;15.15;;;11.00;;
27558;SDS011;15002;52.028;5.670;2022-10-17T10:18:44;12.23;;;9.55;;
27558;SDS011;15002;52.028;5.670;2022-10-17T10:21:11;13.60;;;9.82;;
27558;SDS011;15002;52.028;5.670;2022-10-17T10:23:42;12.25;;;9.65;;
27558;SDS011;15002;52.028;5.670;2022-10-17T10:26:52;14.10;;;9.25;;
27558;SDS011;15002;52.028;5.670;2022-10-17T10:29:19;11.73;;;8.77;;
27558;SDS011;15002;52.028;5.670;2022-10-17T10:31:54;10.15;;;8.60;;
27558;SDS011;15002;52.028;5.670;2022-10-17T10:34:27;12.48;;;8.25;;
27558;SDS011;15002;52.028;5.670;2022-10-17T10:41:54;29.70;;;24.85;;
27558;SDS011;15002;52.028;5.670;2022-10-17T10:44:22;27.85;;;22.58;;
27558;SDS011;15002;52.028;5.670;2022-10-17T10:47:35;15.82;;;11.55;;
27558;SDS011;15002;52.028;5.670;2022-10-17T10:49:41;15.20;;;13.20;;
27558;SDS011;15002;52.028;5.670;2022-10-17T10:52:07;12.25;;;10.73;;
27558;SDS011;15002;52.028;5.670;2022-10-17T10:54:52;13.25;;;10.10;;
27558;SDS011;15002;52.028;5.670;2022-10-17T10:57:22;10.20;;;8.90;;
27558;SDS011;15002;52.028;5.670;2022-10-17T10:59:59;14.05;;;8.63;;
27558;SDS011;15002;52.028;5.670;2022-10-17T11:05:36;9.48;;;7.57;;
27558;SDS011;15002;52.028;5.670;2022-10-17T11:13:14;15.65;;;10.02;;
27558;SDS011;15002;52.028;5.670;2022-10-17T11:15:57;23.17;;;20.67;;
27558;SDS011;15002;52.028;5.670;2022-10-17T11:18:32;32.88;;;29.38;;
27558;SDS011;15002;52.028;5.670;2022-10-17T11:21:11;35.38;;;31.58;;
27558;SDS011;15002;52.028;5.670;2022-10-17T11:24:20;31.88;;;28.55;;
27558;SDS011;15002;52.028;5.670;2022-10-17T11:26:52;20.02;;;15.73;;
27558;SDS011;15002;52.028;5.670;2022-10-17T11:29:23;17.73;;;13.70;;
27558;SDS011;15002;52.028;5.670;2022-10-17T11:31:55;12.18;;;10.68;;
27558;SDS011;15002;52.028;5.670;2022-10-17T11:34:26;12.27;;;9.13;;
27558;SDS011;15002;52.028;5.670;2022-10-17T11:37:05;13.23;;;9.77;;
27558;SDS011;15002;52.028;5.670;2022-10-17T11:39:46;14.23;;;10.85;;
27558;SDS011;15002;52.028;5.670;2022-10-17T11:42:20;26.08;;;22.98;;
27558;SDS011;15002;52.028;5.670;2022-10-17T11:44:49;22.40;;;19.60;;
27558;SDS011;15002;52.028;5.670;2022-10-17T11:57:53;19.33;;;16.02;;
27558;SDS011;15002;52.028;5.670;2022-10-17T12:06:07;12.30;;;9.73;;
27558;SDS011;15002;52.028;5.670;2022-10-17T12:08:56;12.25;;;10.38;;
27558;SDS011;15002;52.028;5.670;2022-10-17T12:13:54;15.05;;;11.00;;
27558;SDS011;15002;52.028;5.670;2022-10-17T12:19:32;13.35;;;11.15;;
27558;SDS011;15002;52.028;5.670;2022-10-17T12:22:00;16.50;;;13.13;;
27558;SDS011;15002;52.028;5.670;2022-10-17T12:24:54;15.30;;;11.32;;
27558;SDS011;15002;52.028;5.670;2022-10-17T12:30:00;14.95;;;10.35;;
27558;SDS011;15002;52.028;5.670;2022-10-17T12:32:28;10.10;;;8.43;;
27558;SDS011;15002;52.028;5.670;2022-10-17T12:34:55;13.45;;;11.77;;
27558;SDS011;15002;52.028;5.670;2022-10-17T12:42:59;14.05;;;11.70;;
27558;SDS011;15002;52.028;5.670;2022-10-17T12:45:50;12.18;;;9.70;;
27558;SDS011;15002;52.028;5.670;2022-10-17T12:59:14;11.07;;;9.98;;
27558;SDS011;15002;52.028;5.670;2022-10-17T13:01:44;13.82;;;9.88;;
27558;SDS011;15002;52.028;5.670;2022-10-17T13:04:12;13.32;;;9.95;;
27558;SDS011;15002;52.028;5.670;2022-10-17T13:06:42;11.95;;;9.57;;
27558;SDS011;15002;52.028;5.670;2022-10-17T13:11:43;12.05;;;10.40;;
27558;SDS011;15002;52.028;5.670;2022-10-17T13:14:10;10.60;;;9.48;;
27558;SDS011;15002;52.028;5.670;2022-10-17T13:16:38;11.82;;;10.60;;
27558;SDS011;15002;52.028;5.670;2022-10-17T13:19:16;12.82;;;10.55;;
27558;SDS011;15002;52.028;5.670;2022-10-17T13:21:52;11.38;;;9.93;;
27558;SDS011;15002;52.028;5.670;2022-10-17T13:26:58;14.68;;;10.43;;
27558;SDS011;15002;52.028;5.670;2022-10-17T13:29:25;13.82;;;10.93;;
27558;SDS011;15002;52.028;5.670;2022-10-17T13:31:57;15.93;;;11.60;;
27558;SDS011;15002;52.028;5.670;2022-10-17T13:34:28;13.77;;;10.95;;
27558;SDS011;15002;52.028;5.670;2022-10-17T13:36:56;13.18;;;11.07;;
27558;SDS011;15002;52.028;5.670;2022-10-17T13:39:33;14.80;;;11.93;;
27558;SDS011;15002;52.028;5.670;2022-10-17T13:42:04;14.90;;;11.85;;
27558;SDS011;15002;52.028;5.670;2022-10-17T13:44:33;15.38;;;11.13;;
27558;SDS011;15002;52.028;5.670;2022-10-17T13:47:00;15.13;;;11.75;;
27558;SDS011;15002;52.028;5.670;2022-10-17T13:49:33;12.85;;;11.23;;
27558;SDS011;15002;52.028;5.670;2022-10-17T13:52:12;13.63;;;11.48;;
27558;SDS011;15002;52.028;5.670;2022-10-17T13:54:45;13.52;;;11.85;;
27558;SDS011;15002;52.028;5.670;2022-10-17T13:57:25;16.33;;;12.90;;
27558;SDS011;15002;52.028;5.670;2022-10-17T14:02:24;21.83;;;13.20;;
27558;SDS011;15002;52.028;5.670;2022-10-17T14:05:02;18.58;;;13.10;;
27558;SDS011;15002;52.028;5.670;2022-10-17T14:10:01;15.18;;;12.82;;
27558;SDS011;15002;52.028;5.670;2022-10-17T14:12:30;15.63;;;12.93;;
27558;SDS011;15002;52.028;5.670;2022-10-17T14:14:57;17.13;;;13.05;;
27558;SDS011;15002;52.028;5.670;2022-10-17T14:17:26;15.75;;;12.68;;
27558;SDS011;15002;52.028;5.670;2022-10-17T14:19:58;15.10;;;13.00;;
27558;SDS011;15002;52.028;5.670;2022-10-17T14:22:29;15.88;;;12.13;;
27558;SDS011;15002;52.028;5.670;2022-10-17T14:24:59;14.93;;;12.30;;
27558;SDS011;15002;52.028;5.670;2022-10-17T14:32:52;17.23;;;12.13;;
27558;SDS011;15002;52.028;5.670;2022-10-17T14:35:21;14.83;;;12.90;;
27558;SDS011;15002;52.028;5.670;2022-10-17T14:37:48;14.88;;;12.38;;
27558;SDS011;15002;52.028;5.670;2022-10-17T14:40:20;19.13;;;12.85;;
27558;SDS011;15002;52.028;5.670;2022-10-17T14:42:51;14.88;;;11.23;;
27558;SDS011;15002;52.028;5.670;2022-10-17T14:45:28;12.25;;;10.73;;
27558;SDS011;15002;52.028;5.670;2022-10-17T14:48:03;12.07;;;10.73;;
27558;SDS011;15002;52.028;5.670;2022-10-17T14:50:35;14.60;;;11.00;;
27558;SDS011;15002;52.028;5.670;2022-10-17T14:55:27;13.02;;;10.68;;
27558;SDS011;15002;52.028;5.670;2022-10-17T14:57:54;13.32;;;10.43;;
27558;SDS011;15002;52.028;5.670;2022-10-17T15:00:20;20.00;;;12.65;;
27558;SDS011;15002;52.028;5.670;2022-10-17T15:02:47;19.50;;;12.40;;
27558;SDS011;15002;52.028;5.670;2022-10-17T15:05:14;16.48;;;12.65;;
27558;SDS011;15002;52.028;5.670;2022-10-17T15:07:41;14.23;;;11.60;;
27558;SDS011;15002;52.028;5.670;2022-10-17T15:12:51;13.60;;;10.98;;
27558;SDS011;15002;52.028;5.670;2022-10-17T15:15:17;13.27;;;11.38;;
27558;SDS011;15002;52.028;5.670;2022-10-17T15:17:42;12.65;;;11.35;;
27558;SDS011;15002;52.028;5.670;2022-10-17T15:20:11;14.43;;;11.20;;
27558;SDS011;15002;52.028;5.670;2022-10-17T15:22:40;13.00;;;11.13;;
27558;SDS011;15002;52.028;5.670;2022-10-17T15:25:05;14.45;;;11.40;;
27558;SDS011;15002;52.028;5.670;2022-10-17T15:27:31;14.63;;;11.02;;
27558;SDS011;15002;52.028;5.670;2022-10-17T15:29:57;12.43;;;11.13;;
27558;SDS011;15002;52.028;5.670;2022-10-17T15:32:23;13.68;;;11.48;;
27558;SDS011;15002;52.028;5.670;2022-10-17T15:34:48;15.40;;;11.55;;
27558;SDS011;15002;52.028;5.670;2022-10-17T15:37:18;15.48;;;11.75;;
27558;SDS011;15002;52.028;5.670;2022-10-17T15:39:48;17.35;;;11.82;;
27558;SDS011;15002;52.028;5.670;2022-10-17T15:42:21;15.80;;;12.35;;
27558;SDS011;15002;52.028;5.670;2022-10-17T15:44:51;17.23;;;11.52;;
27558;SDS011;15002;52.028;5.670;2022-10-17T15:49:50;14.00;;;12.10;;
27558;SDS011;15002;52.028;5.670;2022-10-17T15:52:16;14.07;;;11.57;;
27558;SDS011;15002;52.028;5.670;2022-10-17T15:54:43;14.95;;;11.38;;
27558;SDS011;15002;52.028;5.670;2022-10-17T15:57:13;15.00;;;11.93;;
27558;SDS011;15002;52.028;5.670;2022-10-17T15:59:42;15.68;;;12.75;;
27558;SDS011;15002;52.028;5.670;2022-10-17T16:02:14;15.63;;;12.05;;
27558;SDS011;15002;52.028;5.670;2022-10-17T16:04:40;22.40;;;12.77;;
27558;SDS011;15002;52.028;5.670;2022-10-17T16:07:06;16.70;;;12.90;;
27558;SDS011;15002;52.028;5.670;2022-10-17T16:09:33;28.75;;;17.90;;
27558;SDS011;15002;52.028;5.670;2022-10-17T16:12:01;27.38;;;16.00;;
27558;SDS011;15002;52.028;5.670;2022-10-17T16:14:31;20.52;;;14.55;;
27558;SDS011;15002;52.028;5.670;2022-10-17T16:16:57;18.42;;;15.02;;
27558;SDS011;15002;52.028;5.670;2022-10-17T16:19:24;20.60;;;16.45;;
27558;SDS011;15002;52.028;5.670;2022-10-17T16:21:53;21.00;;;15.02;;
27558;SDS011;15002;52.028;5.670;2022-10-17T16:24:25;17.13;;;14.50;;
27558;SDS011;15002;52.028;5.670;2022-10-17T16:26:50;18.52;;;14.55;;
27558;SDS011;15002;52.028;5.670;2022-10-17T16:29:16;21.10;;;15.43;;
27558;SDS011;15002;52.028;5.670;2022-10-17T16:31:43;17.58;;;14.70;;
27558;SDS011;15002;52.028;5.670;2022-10-17T16:34:10;21.65;;;15.35;;
27558;SDS011;15002;52.028;5.670;2022-10-17T16:36:39;24.90;;;15.30;;
27558;SDS011;15002;52.028;5.670;2022-10-17T16:39:05;22.25;;;16.60;;
27558;SDS011;15002;52.028;5.670;2022-10-17T16:41:33;22.05;;;18.02;;
27558;SDS011;15002;52.028;5.670;2022-10-17T16:44:02;22.17;;;17.42;;
27558;SDS011;15002;52.028;5.670;2022-10-17T16:46:30;24.00;;;18.20;;
27558;SDS011;15002;52.028;5.670;2022-10-17T16:48:57;23.05;;;17.92;;
27558;SDS011;15002;52.028;5.670;2022-10-17T16:51:23;21.30;;;18.05;;